createdAt,value
2023-02-22T00:02:10.866Z,2.88
2023-02-22T00:04:16.710Z,2.82
2023-02-22T00:06:21.876Z,2.83
2023-02-22T00:08:25.807Z,2.87
2023-02-22T00:10:27.892Z,2.82
2023-02-22T00:12:29.996Z,2.78
2023-02-22T00:14:31.996Z,2.73
2023-02-22T00:16:34.990Z,2.61
2023-02-22T00:18:42.980Z,2.53
2023-02-22T00:20:45.268Z,2.51
2023-02-22T00:22:49.123Z,2.51
2023-02-22T00:24:51.241Z,2.38
2023-02-22T00:26:58.026Z,2.34
2023-02-22T00:29:00.022Z,2.15
2023-02-22T00:31:02.026Z,2.12
2023-02-22T00:33:06.340Z,2.04
2023-02-22T00:35:09.034Z,2.04
2023-02-22T00:37:11.686Z,1.94
2023-02-22T00:39:14.637Z,1.70
2023-02-22T00:41:25.553Z,1.72
2023-02-22T00:43:27.613Z,1.68
2023-02-22T00:45:31.221Z,1.71
2023-02-22T00:47:34.202Z,1.78
2023-02-22T00:49:37.468Z,1.68
2023-02-22T00:51:39.721Z,1.59
2023-02-22T00:53:41.666Z,1.55
2023-02-22T00:55:43.736Z,1.56
2023-02-22T00:57:45.690Z,1.53
2023-02-22T00:59:47.744Z,1.57
2023-02-22T01:01:49.861Z,1.43
2023-02-22T01:03:52.443Z,1.40
2023-02-22T01:05:54.507Z,1.25
2023-02-22T01:07:57.907Z,1.30
2023-02-22T01:09:59.796Z,1.15
2023-02-22T01:12:02.624Z,1.08
2023-02-22T01:14:04.386Z,1.09
2023-02-22T01:16:08.569Z,1.09
2023-02-22T01:18:11.919Z,0.98
2023-02-22T01:20:16.879Z,0.98
2023-02-22T01:22:19.376Z,0.96
2023-02-22T01:24:21.200Z,0.86
2023-02-22T01:26:22.999Z,0.88
2023-02-22T01:28:24.913Z,0.88
2023-02-22T01:30:28.445Z,0.80
2023-02-22T01:32:30.966Z,0.80
2023-02-22T01:34:34.938Z,0.59
2023-02-22T01:36:36.853Z,0.58
2023-02-22T01:38:39.486Z,0.67
2023-02-22T01:40:55.731Z,0.75
2023-02-22T01:43:15.788Z,0.51
2023-02-22T01:45:32.969Z,0.63
2023-02-22T01:47:35.849Z,0.53
2023-02-22T01:49:55.861Z,0.57
2023-02-22T01:52:00.373Z,0.59
2023-02-22T01:54:06.500Z,0.54
2023-02-22T01:56:09.358Z,0.60
2023-02-22T01:58:13.884Z,0.65
2023-02-22T02:00:21.362Z,0.64
2023-02-22T02:02:25.440Z,0.68
2023-02-22T02:04:28.470Z,0.52
2023-02-22T02:06:37.349Z,0.63
2023-02-22T02:08:50.007Z,0.62
2023-02-22T02:10:58.354Z,0.44
2023-02-22T02:13:00.390Z,0.51
2023-02-22T02:15:22.980Z,0.57
2023-02-22T02:17:24.905Z,0.65
2023-02-22T02:19:32.449Z,0.75
2023-02-22T02:21:52.836Z,0.82
2023-02-22T02:24:16.458Z,0.82
2023-02-22T02:26:27.773Z,0.88
2023-02-22T02:28:42.310Z,0.94
2023-02-22T02:30:45.118Z,0.89
2023-02-22T02:33:06.747Z,0.92
2023-02-22T02:35:13.885Z,0.86
2023-02-22T02:37:33.828Z,0.80
2023-02-22T02:39:39.886Z,0.78
2023-02-22T02:41:45.686Z,0.73
2023-02-22T02:43:55.288Z,0.65
2023-02-22T02:46:12.441Z,0.61
2023-02-22T02:48:17.463Z,0.57
2023-02-22T02:50:25.530Z,0.50
2023-02-22T02:52:30.786Z,0.47
2023-02-22T02:54:33.560Z,0.43
2023-02-22T02:56:35.577Z,0.47
2023-02-22T02:58:49.353Z,0.41
2023-02-22T03:00:56.905Z,0.31
2023-02-22T03:02:59.288Z,0.46
2023-02-22T03:05:35.132Z,0.31
2023-02-22T03:08:00.846Z,0.27
2023-02-22T03:10:21.916Z,0.19
2023-02-22T03:12:23.662Z,0.16
2023-02-22T03:14:31.349Z,0.09
2023-02-22T03:16:38.801Z,0.02
2023-02-22T03:18:50.613Z,0.05
2023-02-22T03:20:56.002Z,-0.02
2023-02-22T03:23:01.259Z,-0.08
2023-02-22T03:25:08.233Z,-0.12
2023-02-22T03:27:24.868Z,-0.07
2023-02-22T03:29:29.535Z,-0.17
2023-02-22T03:31:42.936Z,-0.23
2023-02-22T03:33:47.983Z,-0.18
2023-02-22T03:35:57.106Z,-0.26
2023-02-22T03:38:04.223Z,-0.28
2023-02-22T03:40:15.215Z,-0.27
2023-02-22T03:42:38.459Z,-0.17
2023-02-22T03:44:43.524Z,-0.23
2023-02-22T03:46:49.023Z,-0.19
2023-02-22T03:48:59.043Z,-0.30
2023-02-22T03:51:04.650Z,-0.25
2023-02-22T03:53:07.700Z,-0.26
2023-02-22T03:55:12.212Z,-0.18
2023-02-22T03:57:25.434Z,-0.05
2023-02-22T03:59:28.164Z,0.00
2023-02-22T04:01:31.101Z,-0.03
2023-02-22T04:03:32.999Z,-0.07
2023-02-22T04:05:34.999Z,-0.05
2023-02-22T04:07:37.124Z,-0.08
2023-02-22T04:09:39.503Z,-0.14
2023-02-22T04:11:42.551Z,-0.31
2023-02-22T04:13:44.470Z,-0.33
2023-02-22T04:15:46.527Z,-0.36
2023-02-22T04:17:48.558Z,-0.25
2023-02-22T04:19:51.598Z,-0.36
2023-02-22T04:21:53.553Z,-0.23
2023-02-22T04:23:58.247Z,-0.25
2023-02-22T04:26:00.287Z,-0.20
2023-02-22T04:28:03.428Z,-0.20
2023-02-22T04:30:06.154Z,-0.27
2023-02-22T04:32:08.801Z,-0.22
2023-02-22T04:34:10.792Z,-0.16
2023-02-22T04:36:13.815Z,-0.12
2023-02-22T04:38:15.723Z,-0.16
2023-02-22T04:40:18.208Z,-0.18
2023-02-22T04:42:20.292Z,-0.16
2023-02-22T04:44:22.322Z,-0.15
2023-02-22T04:46:24.299Z,-0.06
2023-02-22T04:48:27.294Z,0.07
2023-02-22T04:50:31.956Z,0.12
2023-02-22T04:52:34.118Z,0.20
2023-02-22T04:54:46.308Z,0.27
2023-02-22T04:56:48.554Z,0.27
2023-02-22T04:58:52.473Z,0.33
2023-02-22T05:00:54.539Z,0.37
2023-02-22T05:02:56.511Z,0.44
2023-02-22T05:04:58.735Z,0.45
2023-02-22T05:07:05.136Z,0.48
2023-02-22T05:09:07.184Z,0.48
2023-02-22T05:11:10.535Z,0.50
2023-02-22T05:13:13.183Z,0.42
2023-02-22T05:15:20.850Z,0.40
2023-02-22T05:17:30.011Z,0.31
2023-02-22T05:19:31.926Z,0.28
2023-02-22T05:21:38.396Z,0.21
2023-02-22T05:23:41.709Z,0.24
2023-02-22T05:25:44.799Z,0.19
2023-02-22T05:27:56.546Z,0.19
2023-02-22T05:29:58.490Z,0.15
2023-02-22T05:32:00.511Z,0.24
2023-02-22T05:34:02.640Z,0.19
2023-02-22T05:36:09.085Z,0.18
2023-02-22T05:38:15.332Z,0.11
2023-02-22T05:40:24.508Z,0.09
2023-02-22T05:42:26.596Z,0.01
2023-02-22T05:44:28.514Z,0.08
2023-02-22T05:46:30.577Z,0.00
2023-02-22T05:48:33.767Z,-0.02
2023-02-22T05:50:35.812Z,-0.02
2023-02-22T05:52:38.891Z,-0.03
2023-02-22T05:54:40.830Z,-0.07
2023-02-22T05:56:44.802Z,-0.09
2023-02-22T05:58:46.835Z,-0.09
2023-02-22T06:00:49.878Z,-0.14
2023-02-22T06:02:59.904Z,-0.25
2023-02-22T06:05:01.863Z,-0.17
2023-02-22T06:07:04.831Z,-0.18
2023-02-22T06:09:12.640Z,-0.18
2023-02-22T06:11:23.231Z,-0.14
2023-02-22T06:13:26.193Z,-0.11
2023-02-22T06:15:29.775Z,-0.15
2023-02-22T06:17:32.725Z,-0.14
2023-02-22T06:19:34.735Z,-0.08
2023-02-22T06:21:37.753Z,-0.04
2023-02-22T06:23:39.714Z,-0.02
2023-02-22T06:25:41.646Z,-0.02
2023-02-22T06:27:43.595Z,0.07
2023-02-22T06:29:47.463Z,0.03
2023-02-22T06:31:51.749Z,0.07
2023-02-22T06:33:57.348Z,0.11
2023-02-22T06:36:00.547Z,0.22
2023-02-22T06:38:02.648Z,0.27
2023-02-22T06:40:05.689Z,0.32
2023-02-22T06:42:08.024Z,0.34
2023-02-22T06:44:11.345Z,0.33
2023-02-22T06:46:14.794Z,0.35
2023-02-22T06:48:19.174Z,0.42
2023-02-22T06:50:27.120Z,0.52
2023-02-22T06:52:30.240Z,0.53
2023-02-22T06:54:32.556Z,0.61
2023-02-22T06:56:34.505Z,0.69
2023-02-22T06:58:36.502Z,0.68
2023-02-22T07:00:38.571Z,0.75
2023-02-22T07:02:48.714Z,0.76
2023-02-22T07:04:52.933Z,0.81
2023-02-22T07:06:54.924Z,0.77
2023-02-22T07:08:56.818Z,0.86
2023-02-22T07:10:59.890Z,0.86
2023-02-22T07:13:05.092Z,0.85
2023-02-22T07:15:07.855Z,0.92
2023-02-22T07:17:12.192Z,0.88
2023-02-22T07:19:19.544Z,0.93
2023-02-22T07:21:26.021Z,0.96
2023-02-22T07:23:30.106Z,0.96
2023-02-22T07:25:38.011Z,0.94
2023-02-22T07:27:42.325Z,1.02
2023-02-22T07:29:50.232Z,1.02
2023-02-22T07:31:53.310Z,1.12
2023-02-22T07:33:55.415Z,1.02
2023-02-22T07:36:00.594Z,1.12
2023-02-22T07:38:04.347Z,1.13
2023-02-22T07:40:10.354Z,1.17
2023-02-22T07:42:12.526Z,1.17
2023-02-22T07:44:17.855Z,1.11
2023-02-22T07:46:27.863Z,1.37
2023-02-22T07:48:31.769Z,1.16
2023-02-22T07:50:40.996Z,1.32
2023-02-22T07:52:56.928Z,1.39
2023-02-22T07:55:00.747Z,1.55
2023-02-22T07:57:03.707Z,1.56
2023-02-22T07:59:05.667Z,1.75
2023-02-22T08:01:08.991Z,1.79
2023-02-22T08:03:15.598Z,1.82
2023-02-22T08:05:21.807Z,1.94
2023-02-22T08:07:25.583Z,1.75
2023-02-22T08:09:30.685Z,1.75
2023-02-22T08:11:33.716Z,1.88
2023-02-22T08:13:39.220Z,1.78
2023-02-22T08:15:42.327Z,1.79
2023-02-22T08:17:50.545Z,1.76
2023-02-22T08:19:52.537Z,1.82
2023-02-22T08:21:57.539Z,2.11
2023-02-22T08:24:03.010Z,2.13
2023-02-22T08:26:15.789Z,2.24
2023-02-22T08:28:23.835Z,2.28
2023-02-22T08:30:30.075Z,2.24
2023-02-22T08:32:33.150Z,2.05
2023-02-22T08:34:36.501Z,2.18
2023-02-22T08:36:43.749Z,2.21
2023-02-22T08:38:54.929Z,2.27
2023-02-22T08:40:58.961Z,2.48
2023-02-22T08:43:07.009Z,2.41
2023-02-22T08:45:09.504Z,2.50
2023-02-22T08:47:11.648Z,2.60
2023-02-22T08:49:19.068Z,2.64
2023-02-22T08:51:21.668Z,2.51
2023-02-22T08:53:33.589Z,2.43
2023-02-22T08:55:42.194Z,2.41
2023-02-22T08:57:45.272Z,2.27
2023-02-22T08:59:48.415Z,2.26
2023-02-22T09:01:50.474Z,2.15
2023-02-22T09:03:55.258Z,2.05
2023-02-22T09:06:08.385Z,2.07
2023-02-22T09:08:11.086Z,2.19
2023-02-22T09:10:26.944Z,2.30
2023-02-22T09:12:32.125Z,2.14
2023-02-22T09:14:34.375Z,2.21
2023-02-22T09:16:38.461Z,2.11
2023-02-22T09:18:44.248Z,2.14
2023-02-22T09:20:47.684Z,2.18
2023-02-22T09:22:55.774Z,2.19
2023-02-22T09:25:02.646Z,2.14
2023-02-22T09:27:12.469Z,2.14
2023-02-22T09:29:15.451Z,2.26
2023-02-22T09:31:17.717Z,2.46
2023-02-22T09:33:22.032Z,2.54
2023-02-22T09:35:30.237Z,2.65
2023-02-22T09:37:33.240Z,2.68
2023-02-22T09:39:37.896Z,2.92
2023-02-22T09:41:45.136Z,2.88
2023-02-22T09:44:07.264Z,2.92
2023-02-22T09:46:34.924Z,2.76
2023-02-22T09:49:04.076Z,2.59
2023-02-22T09:51:16.080Z,2.64
2023-02-22T09:53:31.185Z,2.77
2023-02-22T09:55:44.207Z,2.70
2023-02-22T09:57:49.641Z,2.76
2023-02-22T10:00:13.483Z,2.71
2023-02-22T10:02:27.175Z,2.75
2023-02-22T10:04:43.076Z,2.93
2023-02-22T10:07:12.335Z,3.00
2023-02-22T10:09:15.892Z,2.97
2023-02-22T10:11:26.616Z,2.94
2023-02-22T10:13:48.927Z,2.89
2023-02-22T10:16:22.271Z,2.83
2023-02-22T10:18:35.498Z,2.72
2023-02-22T10:20:53.816Z,2.73
2023-02-22T10:23:24.108Z,2.81
2023-02-22T10:25:28.706Z,2.84
2023-02-22T10:27:39.280Z,2.80
2023-02-22T10:29:46.836Z,2.66
2023-02-22T10:32:01.734Z,2.46
2023-02-22T10:34:17.753Z,2.05
2023-02-22T10:36:22.638Z,2.01
2023-02-22T10:38:30.956Z,1.95
2023-02-22T10:40:33.421Z,1.87
2023-02-22T10:42:51.734Z,1.74
2023-02-22T10:44:53.776Z,1.66
2023-02-22T10:46:59.327Z,1.58
2023-02-22T10:49:07.616Z,1.62
2023-02-22T10:51:10.451Z,1.66
2023-02-22T10:53:15.556Z,1.51
2023-02-22T10:55:17.598Z,1.52
2023-02-22T10:57:32.154Z,1.54
2023-02-22T10:59:39.745Z,1.48
2023-02-22T11:01:42.764Z,1.33
2023-02-22T11:03:45.864Z,1.39
2023-02-22T11:05:53.768Z,1.32
2023-02-22T11:08:15.981Z,1.27
2023-02-22T11:10:31.812Z,1.31
2023-02-22T11:12:40.041Z,1.29
2023-02-22T11:14:48.677Z,1.33
2023-02-22T11:16:57.206Z,1.37
2023-02-22T11:19:04.996Z,1.37
2023-02-22T11:21:11.810Z,1.47
2023-02-22T11:23:14.861Z,1.44
2023-02-22T11:25:25.193Z,1.37
2023-02-22T11:27:33.294Z,1.46
2023-02-22T11:29:37.395Z,1.45
2023-02-22T11:31:45.773Z,1.52
2023-02-22T11:36:04.350Z,1.48
2023-02-22T11:38:31.190Z,1.42
2023-02-22T11:40:35.581Z,1.39
2023-02-22T11:42:37.633Z,1.51
2023-02-22T11:44:44.190Z,1.52
2023-02-22T11:46:46.364Z,1.46
2023-02-22T11:49:13.100Z,1.37
2023-02-22T11:51:38.652Z,1.40
2023-02-22T11:54:01.580Z,1.32
2023-02-22T11:56:43.221Z,1.27
2023-02-22T11:59:08.683Z,1.36
2023-02-22T12:01:18.632Z,1.45
2023-02-22T12:03:40.728Z,1.40
2023-02-22T12:06:19.818Z,1.40
2023-02-22T12:08:36.807Z,1.65
2023-02-22T12:10:58.036Z,1.55
2023-02-22T12:13:17.352Z,1.61
2023-02-22T12:15:56.545Z,1.71
2023-02-22T12:18:37.009Z,1.64
2023-02-22T12:20:45.817Z,1.81
2023-02-22T12:23:10.532Z,1.70
2023-02-22T12:25:25.231Z,1.63
2023-02-22T12:27:40.709Z,1.63
2023-02-22T12:29:54.803Z,1.69
2023-02-22T12:32:05.166Z,1.70
2023-02-22T12:34:28.036Z,1.61
2023-02-22T12:36:46.940Z,1.59
2023-02-22T12:38:57.631Z,1.50
2023-02-22T12:41:39.397Z,1.59
2023-02-22T12:44:09.810Z,1.60
2023-02-22T12:46:34.580Z,1.48
2023-02-22T12:49:30.916Z,1.56
2023-02-22T12:51:32.787Z,1.64
2023-02-22T12:53:39.086Z,1.50
2023-02-22T12:55:48.045Z,1.25
2023-02-22T12:58:00.014Z,1.38
2023-02-22T13:00:26.817Z,1.22
2023-02-22T13:02:47.942Z,1.27
2023-02-22T13:04:52.210Z,1.24
2023-02-22T13:07:00.238Z,1.34
2023-02-22T13:09:32.933Z,1.39
2023-02-22T13:11:43.980Z,1.41
2023-02-22T13:14:12.532Z,1.26
2023-02-22T13:16:33.777Z,1.30
2023-02-22T13:18:51.579Z,1.20
2023-02-22T13:21:02.553Z,1.24
2023-02-22T13:23:16.325Z,1.35
2023-02-22T13:25:28.367Z,1.22
2023-02-22T13:27:43.042Z,1.20
2023-02-22T13:29:49.131Z,1.32
2023-02-22T13:32:09.831Z,1.23
2023-02-22T13:34:47.108Z,1.11
2023-02-22T13:36:58.428Z,1.15
2023-02-22T13:39:29.433Z,1.23
2023-02-22T13:42:05.895Z,1.28
2023-02-22T13:44:36.836Z,1.27
2023-02-22T13:46:40.838Z,1.28
2023-02-22T13:49:01.164Z,1.37
2023-02-22T13:51:34.451Z,1.43
2023-02-22T13:53:43.865Z,1.48
2023-02-22T13:55:53.200Z,1.32
2023-02-22T13:58:08.125Z,1.45
2023-02-22T14:00:15.949Z,1.43
2023-02-22T14:03:08.323Z,1.26
2023-02-22T14:05:47.558Z,1.28
2023-02-22T14:07:50.106Z,1.16
2023-02-22T14:09:57.577Z,1.08
2023-02-22T14:11:59.760Z,1.02
2023-02-22T14:14:01.758Z,1.03
2023-02-22T14:16:06.738Z,1.04
2023-02-22T14:18:17.985Z,1.07
2023-02-22T14:20:35.210Z,0.95
2023-02-22T14:22:37.461Z,0.96
2023-02-22T14:24:51.315Z,0.91
2023-02-22T14:27:00.533Z,0.94
2023-02-22T14:29:03.514Z,0.90
2023-02-22T14:31:17.453Z,0.90
2023-02-22T14:33:56.935Z,1.02
2023-02-22T14:35:59.055Z,0.99
2023-02-22T14:38:03.283Z,1.12
2023-02-22T14:40:15.755Z,1.11
2023-02-22T14:42:19.988Z,1.12
2023-02-22T14:44:36.197Z,1.13
2023-02-22T14:46:41.902Z,1.10
2023-02-22T14:49:01.147Z,1.06
2023-02-22T14:51:21.464Z,1.05
2023-02-22T14:53:41.610Z,0.95
2023-02-22T14:55:52.361Z,0.96
2023-02-22T14:58:26.665Z,0.95
2023-02-22T15:00:58.672Z,1.03
2023-02-22T15:03:01.750Z,1.01
2023-02-22T15:05:14.999Z,0.91
2023-02-22T15:07:32.619Z,0.91
2023-02-22T15:09:37.806Z,0.94
2023-02-22T15:11:42.103Z,0.73
2023-02-22T15:13:51.304Z,0.74
2023-02-22T15:16:03.575Z,0.65
2023-02-22T15:18:14.717Z,0.61
2023-02-22T15:20:17.895Z,0.62
2023-02-22T15:22:23.282Z,0.58
2023-02-22T15:24:28.478Z,0.52
2023-02-22T15:26:37.542Z,0.52
2023-02-22T15:28:39.702Z,0.50
2023-02-22T15:30:42.241Z,0.43
2023-02-22T15:33:02.627Z,0.40
2023-02-22T15:35:31.057Z,0.45
2023-02-22T15:37:33.024Z,0.40
2023-02-22T15:39:35.090Z,0.37
2023-02-22T15:41:37.040Z,0.42
2023-02-22T15:43:40.842Z,0.38
2023-02-22T15:45:43.571Z,0.31
2023-02-22T15:47:46.007Z,0.29
2023-02-22T15:50:16.032Z,0.33
2023-02-22T15:52:21.510Z,0.38
2023-02-22T15:54:27.561Z,0.48
2023-02-22T15:56:34.120Z,0.46
2023-02-22T15:58:37.325Z,0.47
2023-02-22T16:00:50.384Z,0.48
2023-02-22T16:02:58.199Z,0.43
2023-02-22T16:05:13.732Z,0.47
2023-02-22T16:07:17.359Z,0.50
2023-02-22T16:09:30.589Z,0.38
2023-02-22T16:11:40.614Z,0.46
2023-02-22T16:13:43.618Z,0.46
2023-02-22T16:16:13.724Z,0.44
2023-02-22T16:18:28.407Z,0.36
2023-02-22T16:20:32.867Z,0.32
2023-02-22T16:22:38.715Z,0.40
2023-02-22T16:24:44.050Z,0.38
2023-02-22T16:27:22.185Z,0.36
2023-02-22T16:29:31.585Z,0.37
2023-02-22T16:31:37.662Z,0.30
2023-02-22T16:33:42.713Z,0.27
2023-02-22T16:35:57.356Z,0.26
2023-02-22T16:38:09.675Z,0.27
2023-02-22T16:40:32.538Z,0.28
2023-02-22T16:42:36.827Z,0.48
2023-02-22T16:44:39.068Z,0.38
2023-02-22T16:46:44.806Z,0.37
2023-02-22T16:48:48.170Z,0.41
2023-02-22T16:50:55.392Z,0.35
2023-02-22T16:53:00.951Z,0.40
2023-02-22T16:55:03.332Z,0.33
2023-02-22T16:57:06.229Z,0.30
2023-02-22T16:59:16.994Z,0.37
2023-02-22T17:01:24.093Z,0.28
2023-02-22T17:03:32.455Z,0.19
2023-02-22T17:05:37.031Z,0.08
2023-02-22T17:07:40.752Z,0.11
2023-02-22T17:09:43.764Z,-0.01
2023-02-22T17:11:47.615Z,0.07
2023-02-22T17:13:52.387Z,0.20
2023-02-22T17:15:55.311Z,0.09
2023-02-22T17:17:57.993Z,0.14
2023-02-22T17:20:01.840Z,0.17
2023-02-22T17:22:06.533Z,0.02
2023-02-22T17:24:13.466Z,0.00
2023-02-22T17:26:20.805Z,0.04
2023-02-22T17:28:25.672Z,0.02
2023-02-22T17:30:28.397Z,0.04
2023-02-22T17:32:30.812Z,-0.02
2023-02-22T17:34:33.346Z,-0.08
2023-02-22T17:36:40.470Z,-0.04
2023-02-22T17:38:43.532Z,-0.03
2023-02-22T17:40:55.067Z,-0.11
2023-02-22T17:43:01.378Z,0.00
2023-02-22T17:45:08.899Z,-0.06
2023-02-22T17:47:12.412Z,0.04
2023-02-22T17:49:15.985Z,-0.03
2023-02-22T17:51:18.710Z,-0.05
2023-02-22T17:53:26.195Z,-0.05
2023-02-22T17:55:29.176Z,-0.08
2023-02-22T17:57:35.280Z,-0.05
2023-02-22T17:59:39.542Z,-0.06
2023-02-22T18:01:45.961Z,0.00
2023-02-22T18:03:48.866Z,-0.02
2023-02-22T18:05:56.007Z,0.04
2023-02-22T18:07:59.120Z,0.01
2023-02-22T18:10:14.454Z,0.03
2023-02-22T18:12:17.376Z,0.10
2023-02-22T18:14:26.005Z,0.06
2023-02-22T18:16:37.128Z,0.01
2023-02-22T18:18:45.103Z,0.06
2023-02-22T18:21:00.194Z,0.08
2023-02-22T18:23:10.346Z,0.04
2023-02-22T18:25:17.938Z,0.01
2023-02-22T18:27:24.593Z,-0.01
2023-02-22T18:29:43.522Z,0.01
2023-02-22T18:31:57.538Z,-0.02
2023-02-22T18:34:02.453Z,-0.03
2023-02-22T18:36:13.792Z,-0.04
2023-02-22T18:38:26.210Z,0.08
2023-02-22T18:40:31.440Z,0.05
2023-02-22T18:42:43.620Z,0.14
2023-02-22T18:44:55.837Z,0.06
2023-02-22T18:46:59.440Z,0.00
2023-02-22T18:49:03.388Z,0.15
2023-02-22T18:51:12.296Z,-0.03
2023-02-22T18:53:18.540Z,-0.03
2023-02-22T18:55:25.595Z,0.03
2023-02-22T18:57:28.786Z,0.05
2023-02-22T18:59:32.345Z,0.06
2023-02-22T19:01:39.322Z,0.13
2023-02-22T19:03:49.690Z,0.01
2023-02-22T19:05:58.816Z,-0.07
2023-02-22T19:08:01.707Z,-0.04
2023-02-22T19:10:05.735Z,0.10
2023-02-22T19:12:09.944Z,0.03
2023-02-22T19:14:17.722Z,0.08
2023-02-22T19:16:25.538Z,0.25
2023-02-22T19:18:29.515Z,0.04
2023-02-22T19:20:35.777Z,0.05
2023-02-22T19:22:39.416Z,0.01
2023-02-22T19:24:46.865Z,0.20
2023-02-22T19:26:54.430Z,0.07
2023-02-22T19:29:09.188Z,0.00
2023-02-22T19:31:27.618Z,0.00
2023-02-22T19:33:31.261Z,-0.04
2023-02-22T19:35:34.496Z,-0.03
2023-02-22T19:37:40.198Z,0.04
2023-02-22T19:39:44.872Z,-0.01
2023-02-22T19:41:49.844Z,0.08
2023-02-22T19:43:57.921Z,-0.02
2023-02-22T19:46:12.699Z,-0.14
2023-02-22T19:48:15.754Z,-0.09
2023-02-22T19:50:19.615Z,-0.14
2023-02-22T19:52:22.761Z,-0.15
2023-02-22T19:54:26.750Z,-0.10
2023-02-22T19:56:32.068Z,-0.05
2023-02-22T19:58:38.717Z,-0.15
2023-02-22T20:00:46.446Z,-0.03
2023-02-22T20:03:06.438Z,-0.19
2023-02-22T20:05:17.177Z,-0.16
2023-02-22T20:07:23.339Z,-0.02
2023-02-22T20:09:41.673Z,-0.22
2023-02-22T20:11:47.246Z,-0.22
2023-02-22T20:13:53.198Z,-0.15
2023-02-22T20:16:02.925Z,-0.22
2023-02-22T20:18:09.711Z,-0.20
2023-02-22T20:20:13.891Z,-0.22
2023-02-22T20:22:17.544Z,-0.13
2023-02-22T20:24:20.678Z,-0.16
2023-02-22T20:26:25.034Z,-0.23
2023-02-22T20:28:28.265Z,-0.17
2023-02-22T20:30:32.876Z,-0.26
2023-02-22T20:32:36.375Z,-0.20
2023-02-22T20:34:46.802Z,-0.32
2023-02-22T20:36:50.218Z,-0.37
2023-02-22T20:38:58.447Z,-0.24
2023-02-22T20:41:00.754Z,-0.29
2023-02-22T20:43:03.703Z,-0.33
2023-02-22T20:45:11.005Z,-0.24
2023-02-22T20:47:19.004Z,-0.15
2023-02-22T20:49:23.090Z,-0.12
2023-02-22T20:51:27.644Z,-0.10
2023-02-22T20:53:32.544Z,-0.15
2023-02-22T20:55:36.144Z,-0.20
2023-02-22T20:57:39.552Z,-0.13
2023-02-22T20:59:42.321Z,-0.11
2023-02-22T21:01:45.408Z,-0.27
2023-02-22T21:03:48.934Z,-0.19
2023-02-22T21:05:52.980Z,-0.08
2023-02-22T21:07:59.160Z,-0.19
2023-02-22T21:10:03.711Z,-0.22
2023-02-22T21:12:14.006Z,-0.24
2023-02-22T21:14:20.848Z,-0.30
2023-02-22T21:16:32.267Z,-0.28
2023-02-22T21:18:34.510Z,-0.14
2023-02-22T21:20:40.609Z,-0.17
2023-02-22T21:22:53.508Z,-0.32
2023-02-22T21:24:57.885Z,-0.34
2023-02-22T21:27:01.173Z,-0.21
2023-02-22T21:29:06.924Z,-0.31
2023-02-22T21:31:11.716Z,-0.47
2023-02-22T21:33:17.483Z,-0.41
2023-02-22T21:35:22.277Z,-0.30
2023-02-22T21:37:27.320Z,-0.19
2023-02-22T21:39:30.061Z,-0.14
2023-02-22T21:41:40.826Z,-0.23
2023-02-22T21:43:44.532Z,-0.14
2023-02-22T21:45:47.225Z,-0.25
2023-02-22T21:47:53.635Z,-0.29
2023-02-22T21:49:57.615Z,-0.22
2023-02-22T21:52:00.101Z,-0.20
2023-02-22T21:54:05.150Z,-0.34
2023-02-22T21:56:15.546Z,-0.34
2023-02-22T21:58:17.574Z,-0.26
2023-02-22T22:00:29.278Z,-0.32
2023-02-22T22:02:32.500Z,-0.34
2023-02-22T22:04:35.561Z,-0.29
2023-02-22T22:06:37.594Z,-0.33
2023-02-22T22:08:43.127Z,-0.24
2023-02-22T22:10:55.515Z,-0.56
2023-02-22T22:13:00.513Z,-0.47
2023-02-22T22:15:02.590Z,-0.27
2023-02-22T22:17:08.098Z,-0.38
2023-02-22T22:19:10.195Z,-0.28
2023-02-22T22:21:19.605Z,-0.40
2023-02-22T22:23:21.862Z,-0.43
2023-02-22T22:25:24.634Z,-0.32
2023-02-22T22:27:27.503Z,-0.36
2023-02-22T22:29:31.086Z,-0.38
2023-02-22T22:31:34.200Z,-0.63
2023-02-22T22:33:37.683Z,-0.77
2023-02-22T22:35:42.066Z,-0.72
2023-02-22T22:37:44.052Z,-0.73
2023-02-22T22:39:46.055Z,-0.86
2023-02-22T22:41:48.550Z,-0.81
2023-02-22T22:43:57.351Z,-0.74
2023-02-22T22:46:00.888Z,-0.78
2023-02-22T22:48:04.892Z,-0.82
2023-02-22T22:50:07.568Z,-0.77
2023-02-22T22:52:10.819Z,-0.90
2023-02-22T22:54:12.781Z,-0.93
2023-02-22T22:56:20.901Z,-0.88
2023-02-22T22:58:22.877Z,-0.93
2023-02-22T23:00:38.024Z,-0.95
2023-02-22T23:02:40.886Z,-1.04
2023-02-22T23:04:42.997Z,-0.90
2023-02-22T23:06:47.322Z,-0.99
2023-02-22T23:09:08.130Z,-1.07
2023-02-22T23:11:11.242Z,-0.90
2023-02-22T23:13:15.851Z,-0.99
2023-02-22T23:15:18.336Z,-0.97
2023-02-22T23:17:31.613Z,-1.01
2023-02-22T23:19:35.453Z,-1.01
2023-02-22T23:21:39.384Z,-1.06
2023-02-22T23:23:41.545Z,-1.06
2023-02-22T23:25:43.722Z,-1.05
2023-02-22T23:27:46.603Z,-1.08
2023-02-22T23:29:49.842Z,-1.12
2023-02-22T23:31:51.765Z,-1.14
2023-02-22T23:33:55.940Z,-1.19
2023-02-22T23:35:57.874Z,-1.23
2023-02-22T23:38:00.569Z,-1.11
2023-02-22T23:40:02.619Z,-1.17
2023-02-22T23:42:04.697Z,-1.27
2023-02-22T23:44:17.901Z,-1.22
2023-02-22T23:46:20.970Z,-1.30
2023-02-22T23:48:23.299Z,-1.38
2023-02-22T23:50:27.063Z,-1.41
2023-02-22T23:52:30.181Z,-1.54
2023-02-22T23:54:36.696Z,-1.32
2023-02-22T23:56:40.474Z,-1.41
2023-02-22T23:58:43.790Z,-1.49
